Time;durP1;ratioP1;P1;durP2;ratioP2;P2;SDS_P1;SDS_P2;PMS_P1;PMS_P2;Temp;Humidity;BMP_temperature;BMP_pressure;BME280_temperature;BME280_humidity;BME280_pressure;Samples;Min_cycle;Max_cycle;Signal;HPM_P1;HPM_P2
2023/09/14 00:02:06;;;;;;;8.23;6.30;;;;;;;28.04;46.03;99925.81;5112242;28;20055;-73
2023/09/14 00:04:35;;;;;;;7.43;5.70;;;;;;;27.99;45.80;99921.00;5112416;28;20044;-74
2023/09/14 00:07:04;;;;;;;9.23;5.85;;;;;;;28.02;46.17;99927.94;5112385;28;20127;-72
2023/09/14 00:09:34;;;;;;;6.97;6.03;;;;;;;27.99;46.16;99933.81;5112267;28;20416;-74
2023/09/14 00:12:03;;;;;;;7.45;5.85;;;;;;;27.99;46.31;99947.53;5112341;28;20051;-74
2023/09/14 00:14:33;;;;;;;7.35;5.82;;;;;;;27.99;46.70;99955.75;5111937;28;20070;-72
2023/09/14 00:17:01;;;;;;;7.38;5.97;;;;;;;27.98;46.29;99959.56;5112036;28;20497;-73
2023/09/14 00:19:30;;;;;;;7.82;5.78;;;;;;;27.97;46.49;99952.41;5112589;28;20040;-73
2023/09/14 00:21:59;;;;;;;6.35;5.53;;;;;;;27.93;46.35;99936.38;5112959;28;20067;-73
2023/09/14 00:24:27;;;;;;;7.43;5.78;;;;;;;27.91;46.69;99943.97;5112861;28;20043;-73
2023/09/14 00:26:56;;;;;;;6.95;5.70;;;;;;;27.89;46.39;99942.47;5113593;28;20047;-73
2023/09/14 00:29:24;;;;;;;6.97;5.35;;;;;;;27.91;46.29;99940.41;5112486;28;20047;-73
2023/09/14 00:31:57;;;;;;;5.95;5.10;;;;;;;27.89;46.19;99929.66;5112248;28;20131;-73
2023/09/14 00:34:25;;;;;;;6.55;5.20;;;;;;;27.88;46.38;99938.91;5112206;28;20051;-73
2023/09/14 00:36:53;;;;;;;9.40;5.15;;;;;;;27.87;46.64;99937.22;5112307;28;20085;-73
2023/09/14 00:39:21;;;;;;;5.50;4.60;;;;;;;27.86;46.49;99935.53;5112469;28;20546;-74
2023/09/14 00:41:50;;;;;;;6.22;4.82;;;;;;;27.84;46.34;99931.34;5113552;28;20090;-73
2023/09/14 00:44:18;;;;;;;7.32;5.07;;;;;;;27.84;46.17;99920.38;5115024;28;20040;-73
2023/09/14 00:46:46;;;;;;;6.78;4.90;;;;;;;27.83;46.08;99924.16;5118685;28;20039;-73
2023/09/14 00:49:16;;;;;;;6.28;4.68;;;;;;;27.81;46.53;99916.16;5118760;28;20180;-71
2023/09/14 00:51:44;;;;;;;6.82;4.30;;;;;;;27.80;46.11;99909.00;5119365;28;20130;-73
2023/09/14 00:54:13;;;;;;;5.35;4.20;;;;;;;27.79;46.22;99906.44;5130707;28;20046;-72
2023/09/14 00:56:41;;;;;;;7.13;4.32;;;;;;;27.77;46.56;99901.19;5133886;28;20043;-72
2023/09/14 00:59:10;;;;;;;6.15;4.50;;;;;;;27.77;46.36;99901.19;5131402;28;20051;-72
2023/09/14 01:01:38;;;;;;;6.20;4.20;;;;;;;27.76;46.23;99895.91;5131081;28;20050;-72
2023/09/14 01:04:07;;;;;;;6.20;4.15;;;;;;;27.74;46.11;99889.81;5129893;28;20524;-72
2023/09/14 01:06:37;;;;;;;7.97;4.30;;;;;;;27.74;46.12;99896.13;5129623;28;20085;-72
2023/09/14 01:09:06;;;;;;;5.25;3.90;;;;;;;27.72;46.41;99903.75;5129437;28;20142;-73
2023/09/14 01:11:34;;;;;;;7.28;3.83;;;;;;;27.71;46.28;99910.28;5123129;28;20139;-71
2023/09/14 01:14:17;;;;;;;6.93;4.10;;;;;;;27.71;46.67;99910.28;5115158;28;20135;-72
2023/09/14 01:16:55;;;;;;;6.85;4.15;;;;;;;27.69;46.23;99901.41;5115082;28;20135;-73
2023/09/14 01:19:40;;;;;;;6.75;3.97;;;;;;;27.67;46.62;99895.28;5114788;28;20404;-72
2023/09/14 01:22:30;;;;;;;5.22;3.92;;;;;;;27.69;46.60;99895.06;5114970;28;20047;-74
2023/09/14 01:25:03;;;;;;;5.20;3.97;;;;;;;27.67;46.63;99898.03;5116113;28;20557;-73
2023/09/14 01:27:33;;;;;;;5.82;3.42;;;;;;;27.65;46.64;99900.13;5115451;28;20063;-73
2023/09/14 01:30:03;;;;;;;4.20;3.30;;;;;;;27.64;46.39;99902.00;5115569;28;20044;-73
2023/09/14 01:32:31;;;;;;;6.85;4.05;;;;;;;27.64;46.26;99898.44;5114603;28;20130;-73
2023/09/14 01:35:00;;;;;;;5.40;4.10;;;;;;;27.63;46.19;99896.75;5114988;28;20044;-73
2023/09/14 01:37:29;;;;;;;5.43;3.72;;;;;;;27.62;46.79;99892.34;5114687;28;20044;-73
2023/09/14 01:39:58;;;;;;;5.25;3.38;;;;;;;27.60;46.84;99891.69;5114627;28;20416;-73
2023/09/14 01:42:27;;;;;;;5.03;3.20;;;;;;;27.59;46.51;99870.81;5114628;28;20131;-73
2023/09/14 01:44:56;;;;;;;5.70;3.40;;;;;;;27.59;46.81;99874.41;5114354;28;20066;-73
2023/09/14 01:47:24;;;;;;;5.13;3.50;;;;;;;27.58;46.48;99871.88;5114795;28;20476;-74
2023/09/14 01:49:53;;;;;;;4.93;3.42;;;;;;;27.56;46.76;99872.09;5114410;28;20126;-74
2023/09/14 01:52:21;;;;;;;5.25;3.50;;;;;;;27.55;46.69;99875.06;5114171;28;20054;-74
2023/09/14 01:54:50;;;;;;;4.20;3.10;;;;;;;27.55;46.89;99878.63;5114048;28;20123;-73
2023/09/14 01:57:18;;;;;;;4.47;3.13;;;;;;;27.53;46.82;99874.44;5113008;28;20484;-73
2023/09/14 01:59:46;;;;;;;4.60;2.97;;;;;;;27.53;46.68;99879.91;5113744;28;20507;-73
2023/09/14 02:02:16;;;;;;;4.70;3.17;;;;;;;27.52;46.89;99872.75;5113963;28;20044;-74
2023/09/14 02:04:44;;;;;;;4.57;3.45;;;;;;;27.52;46.86;99880.97;5113823;28;20043;-73
2023/09/14 02:07:12;;;;;;;4.30;3.20;;;;;;;27.51;46.95;99882.84;5113785;28;20481;-73
2023/09/14 02:09:41;;;;;;;5.40;3.30;;;;;;;27.50;46.53;99880.31;5113576;28;20513;-73
2023/09/14 02:12:09;;;;;;;4.75;3.17;;;;;;;27.47;46.50;99891.69;5113354;28;20124;-73
2023/09/14 02:14:37;;;;;;;4.63;3.13;;;;;;;27.49;46.57;99897.78;5113799;28;20083;-72
2023/09/14 02:17:06;;;;;;;6.10;3.30;;;;;;;27.47;46.56;99897.16;5113610;28;20067;-73
2023/09/14 02:19:35;;;;;;;3.92;2.72;;;;;;;27.48;46.55;99888.75;5113402;28;20051;-73
2023/09/14 02:22:04;;;;;;;4.97;3.20;;;;;;;27.45;46.69;99896.53;5113483;28;20397;-73
2023/09/14 02:24:33;;;;;;;5.60;3.20;;;;;;;27.45;47.15;99905.59;5113281;28;20048;-73
2023/09/14 02:27:01;;;;;;;4.40;3.33;;;;;;;27.45;46.94;99912.97;5113562;28;20054;-72
2023/09/14 02:29:30;;;;;;;4.95;3.28;;;;;;;27.44;47.00;99925.81;5113372;28;20079;-72
2023/09/14 02:31:59;;;;;;;5.32;3.25;;;;;;;27.44;46.81;99922.25;5113328;28;20048;-70
2023/09/14 02:34:27;;;;;;;5.80;3.53;;;;;;;27.43;46.71;99923.31;5113118;28;20531;-70
2023/09/14 02:36:56;;;;;;;4.70;2.90;;;;;;;27.41;46.85;99925.38;5113072;28;20050;-71
2023/09/14 02:39:25;;;;;;;5.00;3.05;;;;;;;27.38;47.33;99922.00;5113185;28;20050;-71
2023/09/14 02:41:53;;;;;;;4.95;3.20;;;;;;;27.37;46.96;99920.34;5113243;28;20044;-70
2023/09/14 02:44:21;;;;;;;3.92;2.85;;;;;;;27.37;47.36;99914.84;5113172;28;20209;-70
2023/09/14 02:46:49;;;;;;;4.25;3.00;;;;;;;27.38;47.25;99930.22;5113082;28;20222;-71
2023/09/14 02:49:17;;;;;;;4.22;3.03;;;;;;;27.38;47.26;99921.19;5112910;28;20074;-71
2023/09/14 02:51:45;;;;;;;4.10;3.00;;;;;;;27.37;47.18;99931.28;5112661;28;20052;-70
2023/09/14 02:54:15;;;;;;;4.85;3.00;;;;;;;27.38;47.04;99932.13;5113035;28;20911;-70
2023/09/14 02:56:43;;;;;;;4.10;2.90;;;;;;;27.35;47.41;99935.28;5112843;28;20151;-71
2023/09/14 02:59:12;;;;;;;4.55;2.80;;;;;;;27.34;46.98;99931.72;5112732;28;20489;-70
2023/09/14 03:01:40;;;;;;;5.20;2.95;;;;;;;27.32;47.14;99933.00;5112695;28;20112;-71
2023/09/14 03:04:11;;;;;;;4.18;3.00;;;;;;;27.30;47.48;99935.91;5112550;28;20043;-71
2023/09/14 03:06:39;;;;;;;4.63;2.80;;;;;;;27.31;47.35;99945.84;5112634;28;20047;-72
2023/09/14 03:09:09;;;;;;;5.05;3.13;;;;;;;27.29;47.39;99945.19;5111732;28;20044;-70
2023/09/14 03:11:38;;;;;;;5.13;3.30;;;;;;;27.28;47.32;99946.22;5112426;28;20054;-73
2023/09/14 03:14:06;;;;;;;3.70;2.60;;;;;;;27.28;47.48;99942.66;5112325;28;20039;-72
2023/09/14 03:16:34;;;;;;;4.10;2.80;;;;;;;27.26;47.40;99942.88;5112457;28;20051;-72
2023/09/14 03:19:03;;;;;;;4.97;3.00;;;;;;;27.25;47.44;99941.19;5112629;28;20094;-71
2023/09/14 03:21:31;;;;;;;3.85;2.50;;;;;;;27.24;47.04;99936.75;5112498;28;20091;-71
2023/09/14 03:23:59;;;;;;;3.70;2.50;;;;;;;27.24;47.53;99942.22;5112370;28;20044;-70
2023/09/14 03:26:28;;;;;;;4.55;2.78;;;;;;;27.24;47.34;99939.50;5112342;28;20031;-72
2023/09/14 03:28:58;;;;;;;3.78;2.67;;;;;;;27.22;47.07;99932.56;5112269;28;20047;-71
2023/09/14 03:31:26;;;;;;;3.90;2.70;;;;;;;27.19;47.30;99933.78;5112125;28;20047;-71
2023/09/14 03:33:54;;;;;;;4.15;3.00;;;;;;;27.19;47.25;99939.25;5112452;28;20163;-70
2023/09/14 03:36:23;;;;;;;4.53;2.80;;;;;;;27.18;47.23;99932.09;5112573;28;20043;-71
2023/09/14 03:38:52;;;;;;;3.67;2.55;;;;;;;27.18;47.08;99948.53;5112164;28;20408;-70
2023/09/14 03:41:20;;;;;;;5.18;2.75;;;;;;;27.17;47.25;99941.38;5094266;28;20458;-70
2023/09/14 03:43:48;;;;;;;4.18;2.60;;;;;;;27.15;47.51;99943.47;5112024;28;20050;-71
2023/09/14 03:46:22;;;;;;;4.28;2.70;;;;;;;27.14;47.31;99939.06;5112039;28;20668;-70
2023/09/14 03:48:51;;;;;;;4.75;2.72;;;;;;;27.13;47.46;99940.09;5112199;28;20054;-70
2023/09/14 03:51:19;;;;;;;4.03;2.63;;;;;;;27.13;47.68;99940.09;5112148;28;20101;-70
2023/09/14 03:53:48;;;;;;;4.07;2.55;;;;;;;27.11;47.38;99944.94;5111986;28;20051;-72
2023/09/14 03:56:17;;;;;;;4.00;2.60;;;;;;;27.12;47.63;99949.38;5111901;28;20408;-70
2023/09/14 03:58:45;;;;;;;3.80;2.70;;;;;;;27.12;47.55;99954.84;5093823;28;20048;-70
2023/09/14 04:01:14;;;;;;;4.18;2.70;;;;;;;27.12;47.73;99954.84;5111998;28;20481;-71
2023/09/14 04:03:43;;;;;;;4.45;2.50;;;;;;;27.12;47.31;99965.81;5111929;28;20485;-71
2023/09/14 04:06:12;;;;;;;4.07;2.70;;;;;;;27.10;47.29;99965.97;5111924;28;20055;-73
2023/09/14 04:08:40;;;;;;;4.63;2.83;;;;;;;27.09;47.44;99971.66;5111964;28;20050;-72
2023/09/14 04:11:09;;;;;;;3.80;2.38;;;;;;;27.07;47.94;99969.13;5111435;28;20420;-72
2023/09/14 04:13:37;;;;;;;4.38;2.70;;;;;;;27.04;47.49;99972.31;5112077;28;20093;-71
2023/09/14 04:16:06;;;;;;;3.92;2.80;;;;;;;27.03;47.66;99983.47;5111867;28;20040;-70
2023/09/14 04:18:36;;;;;;;4.10;2.63;;;;;;;27.03;48.05;99980.72;5111889;28;20048;-71
2023/09/14 04:21:07;;;;;;;5.00;3.08;;;;;;;27.00;47.68;99984.66;5114340;28;20416;-73
2023/09/14 04:23:35;;;;;;;3.70;2.40;;;;;;;26.98;48.15;99981.28;5115652;28;20662;-71
2023/09/14 04:26:04;;;;;;;4.63;2.88;;;;;;;26.96;48.47;99979.81;5115651;28;20110;-73
2023/09/14 04:28:32;;;;;;;3.75;2.75;;;;;;;26.95;47.96;99991.81;5115777;28;20043;-71
2023/09/14 04:31:02;;;;;;;3.88;2.58;;;;;;;26.92;48.57;99975.78;5115808;28;20435;-72
2023/09/14 04:33:31;;;;;;;3.63;2.63;;;;;;;26.90;48.49;99973.25;5115559;28;20043;-72
2023/09/14 04:36:02;;;;;;;4.95;2.85;;;;;;;26.87;48.45;99975.56;5115534;28;20047;-71
2023/09/14 04:38:33;;;;;;;4.70;2.80;;;;;;;26.91;48.46;99987.78;5115359;28;20671;-71
2023/09/14 04:41:04;;;;;;;3.67;2.70;;;;;;;26.90;48.57;99978.72;5115510;28;20066;-72
2023/09/14 04:43:33;;;;;;;3.58;2.42;;;;;;;26.90;48.24;99988.84;5115281;28;20043;-71
2023/09/14 04:46:01;;;;;;;4.05;2.85;;;;;;;26.89;48.08;99976.19;5115452;28;20139;-73
2023/09/14 04:48:30;;;;;;;5.15;2.92;;;;;;;26.88;48.47;99980.84;5115045;28;20040;-73
2023/09/14 04:50:58;;;;;;;4.28;2.90;;;;;;;26.86;48.52;99985.66;5114982;28;20040;-72
2023/09/14 04:53:27;;;;;;;4.55;2.90;;;;;;;26.84;48.70;99986.94;5115407;28;20074;-72
2023/09/14 04:55:57;;;;;;;4.30;2.88;;;;;;;26.83;48.65;99988.81;5115161;28;20559;-72
2023/09/14 04:58:25;;;;;;;3.97;2.72;;;;;;;26.82;48.70;99989.84;5115152;28;20039;-72
2023/09/14 05:00:54;;;;;;;4.68;2.90;;;;;;;26.80;48.96;99998.25;5115011;28;20070;-72
2023/09/14 05:03:22;;;;;;;3.90;2.72;;;;;;;26.78;48.78;99992.16;5114924;28;20079;-72
2023/09/14 05:05:52;;;;;;;3.53;2.70;;;;;;;26.76;48.69;99999.72;5115021;28;20050;-72
2023/09/14 05:08:20;;;;;;;3.72;2.65;;;;;;;26.76;49.17;99999.72;5115082;28;20048;-72
2023/09/14 05:10:51;;;;;;;5.50;2.88;;;;;;;26.75;48.75;99997.22;5114520;28;20058;-72
2023/09/14 05:13:21;;;;;;;3.80;2.70;;;;;;;26.74;48.84;100006.47;5114814;28;20100;-72
2023/09/14 05:15:50;;;;;;;3.45;2.40;;;;;;;26.74;48.75;100001.84;5114500;28;20573;-72
2023/09/14 05:18:18;;;;;;;4.60;2.97;;;;;;;26.75;49.10;100005.41;5114862;28;20052;-72
2023/09/14 05:20:48;;;;;;;5.18;2.80;;;;;;;26.75;48.77;100010.88;5114634;28;20052;-72
2023/09/14 05:23:16;;;;;;;3.85;2.67;;;;;;;26.72;49.17;100008.53;5114545;28;20052;-71
2023/09/14 05:25:45;;;;;;;4.13;2.80;;;;;;;26.72;48.87;100009.38;5114485;28;20048;-72
2023/09/14 05:28:14;;;;;;;3.88;2.65;;;;;;;26.71;49.01;100012.31;5114311;28;20044;-71
2023/09/14 05:30:44;;;;;;;4.22;2.83;;;;;;;26.69;49.45;100009.78;5114063;28;20043;-72
2023/09/14 05:33:13;;;;;;;5.97;2.95;;;;;;;26.68;49.04;100010.00;5113782;28;20051;-72
2023/09/14 05:35:43;;;;;;;4.72;2.85;;;;;;;26.66;49.57;99993.78;5114222;28;20048;-72
2023/09/14 05:38:12;;;;;;;5.85;2.72;;;;;;;26.64;49.13;100004.09;5113942;28;20101;-72
2023/09/14 05:40:41;;;;;;;3.65;2.40;;;;;;;26.63;49.34;100002.38;5114056;28;20078;-73
2023/09/14 05:43:09;;;;;;;4.28;2.60;;;;;;;26.62;49.68;99997.97;5110666;28;20044;-73
2023/09/14 05:45:37;;;;;;;4.22;2.60;;;;;;;26.62;49.84;100006.16;5113711;28;20076;-73
2023/09/14 05:48:10;;;;;;;3.90;2.70;;;;;;;26.61;49.43;100014.59;5113912;28;20035;-73
2023/09/14 05:50:39;;;;;;;4.00;2.75;;;;;;;26.57;49.61;100011.41;5113422;28;20040;-73
2023/09/14 05:53:07;;;;;;;4.38;2.85;;;;;;;26.56;49.64;100015.19;5113262;28;20112;-73
2023/09/14 05:55:35;;;;;;;4.13;2.75;;;;;;;26.56;49.60;100017.94;5113236;28;20563;-73
2023/09/14 05:58:03;;;;;;;4.47;2.60;;;;;;;26.55;50.15;100024.44;5113646;28;20277;-73
2023/09/14 06:00:32;;;;;;;4.65;2.70;;;;;;;26.55;50.06;100024.44;5111024;28;20036;-74
2023/09/14 06:03:00;;;;;;;4.03;2.47;;;;;;;26.56;50.13;100025.31;5113202;28;20035;-74
2023/09/14 06:05:30;;;;;;;3.90;2.60;;;;;;;26.56;49.74;100020.66;5113161;28;20167;-73
2023/09/14 06:07:58;;;;;;;3.92;2.70;;;;;;;26.56;49.71;100026.16;5113225;28;20039;-74
2023/09/14 06:10:26;;;;;;;4.53;2.60;;;;;;;26.57;49.61;100027.81;5112843;28;20071;-74
2023/09/14 06:12:56;;;;;;;4.03;2.72;;;;;;;26.58;49.63;100021.31;5113803;28;20043;-73
2023/09/14 06:15:24;;;;;;;6.22;2.47;;;;;;;26.58;49.97;100032.25;5113459;28;20149;-73
2023/09/14 06:17:52;;;;;;;4.90;2.80;;;;;;;26.60;49.56;100027.41;5112778;28;20043;-74
2023/09/14 06:20:21;;;;;;;5.03;2.65;;;;;;;26.61;49.59;100039.19;5113498;28;20040;-73
2023/09/14 06:22:50;;;;;;;3.75;2.67;;;;;;;26.59;49.97;100036.66;5113121;28;20043;-73
2023/09/14 06:25:20;;;;;;;4.75;2.83;;;;;;;26.59;49.63;100042.13;5113546;28;20051;-77
2023/09/14 06:27:48;;;;;;;4.20;2.80;;;;;;;26.61;49.67;100052.88;5113469;28;20079;-73
2023/09/14 06:30:16;;;;;;;6.00;3.08;;;;;;;26.60;50.02;100051.19;5112228;28;20044;-71
2023/09/14 06:32:48;;;;;;;4.10;2.60;;;;;;;26.60;50.12;100054.78;5095775;28;20054;-72
2023/09/14 06:35:17;;;;;;;4.30;2.70;;;;;;;26.60;49.75;100065.72;5113213;28;20481;-73
2023/09/14 06:37:45;;;;;;;3.65;2.50;;;;;;;26.62;50.22;100058.13;5113038;28;20040;-73
2023/09/14 06:40:15;;;;;;;4.40;2.58;;;;;;;26.60;50.18;100049.28;5112946;28;20047;-70
2023/09/14 06:42:43;;;;;;;4.50;2.85;;;;;;;26.60;50.26;100056.66;5115073;28;20115;-72
2023/09/14 06:45:12;;;;;;;4.03;2.72;;;;;;;26.61;50.28;100053.72;5113440;28;20044;-73
2023/09/14 06:47:40;;;;;;;5.13;3.08;;;;;;;26.62;50.40;100062.75;5112049;28;20109;-72
2023/09/14 06:50:09;;;;;;;4.70;2.80;;;;;;;26.61;50.40;100050.97;5112523;28;20047;-73
2023/09/14 06:52:37;;;;;;;6.68;3.00;;;;;;;26.61;50.56;100059.19;5112476;28;20042;-72
2023/09/14 06:55:06;;;;;;;4.50;2.83;;;;;;;26.61;50.21;100064.66;5112517;28;20044;-73
2023/09/14 06:57:36;;;;;;;4.88;3.00;;;;;;;26.62;50.56;100058.13;5111692;28;20054;-73
2023/09/14 07:00:15;;;;;;;4.60;3.35;;;;;;;26.60;50.42;100062.97;5112179;28;20067;-71
2023/09/14 07:02:44;;;;;;;4.60;2.95;;;;;;;26.56;50.72;100067.16;5109473;28;20403;-72
2023/09/14 07:05:12;;;;;;;4.32;3.05;;;;;;;26.53;50.95;100064.81;5112555;28;20391;-73
2023/09/14 07:07:42;;;;;;;7.20;3.70;;;;;;;26.54;50.85;100072.00;5112363;28;20040;-74
2023/09/14 07:10:11;;;;;;;5.15;3.35;;;;;;;26.52;51.25;100068.59;5111986;28;20058;-72
2023/09/14 07:12:40;;;;;;;7.05;3.40;;;;;;;26.53;51.44;100076.59;5111877;28;20455;-72
2023/09/14 07:15:10;;;;;;;5.20;3.67;;;;;;;26.52;51.56;100072.16;5111704;28;20097;-72
2023/09/14 07:17:38;;;;;;;5.97;3.83;;;;;;;26.53;51.64;100070.28;5112347;28;20044;-75
2023/09/14 07:20:08;;;;;;;6.10;3.90;;;;;;;26.50;51.25;100078.91;5112353;28;20043;-69
2023/09/14 07:22:37;;;;;;;5.13;3.65;;;;;;;26.49;51.48;100089.00;5112399;28;20081;-73
2023/09/14 07:25:08;;;;;;;6.47;4.05;;;;;;;26.49;51.59;100085.41;5112423;28;20047;-72
2023/09/14 07:27:37;;;;;;;5.75;3.90;;;;;;;26.48;51.60;100083.72;5112256;28;20549;-74
2023/09/14 07:30:08;;;;;;;5.90;3.85;;;;;;;26.47;51.50;100090.25;5112241;28;20043;-72
2023/09/14 07:32:36;;;;;;;4.50;3.42;;;;;;;26.47;51.38;100093.81;5112106;28;20048;-70
2023/09/14 07:35:05;;;;;;;5.43;3.60;;;;;;;26.49;51.44;100096.34;5111722;28;20048;-71
2023/09/14 07:37:33;;;;;;;4.70;3.45;;;;;;;26.50;51.38;100098.03;5111461;28;20138;-71
2023/09/14 07:40:04;;;;;;;5.85;3.40;;;;;;;26.49;51.33;100093.63;5110826;28;20420;-71
2023/09/14 07:42:35;;;;;;;5.78;3.40;;;;;;;26.51;51.27;100099.72;5109135;28;20052;-71
2023/09/14 07:45:04;;;;;;;4.50;3.28;;;;;;;26.50;51.59;100098.03;5109776;28;20132;-71
2023/09/14 07:47:34;;;;;;;5.30;3.60;;;;;;;26.53;51.59;100108.56;5109922;28;20046;-71
2023/09/14 07:50:02;;;;;;;4.00;3.03;;;;;;;26.52;51.22;100095.94;5109979;28;20046;-71
2023/09/14 07:52:30;;;;;;;4.25;3.30;;;;;;;26.51;51.36;100099.72;5110121;28;20124;-71
2023/09/14 07:54:58;;;;;;;6.35;3.80;;;;;;;26.55;51.35;100106.50;5111375;28;20119;-71
2023/09/14 07:57:27;;;;;;;5.97;3.45;;;;;;;26.54;51.36;100113.03;5115055;28;20044;-71
2023/09/14 07:59:55;;;;;;;7.07;3.40;;;;;;;26.55;51.17;100120.19;5114998;28;20138;-71
2023/09/14 08:02:23;;;;;;;5.15;3.67;;;;;;;26.55;51.25;100127.53;5115046;28;20411;-71
2023/09/14 08:04:53;;;;;;;5.78;3.80;;;;;;;26.55;51.65;100124.81;5114520;28;20139;-71
2023/09/14 08:07:22;;;;;;;5.50;3.60;;;;;;;26.56;51.47;100132.81;5114597;28;20508;-70
2023/09/14 08:09:50;;;;;;;4.35;3.28;;;;;;;26.57;51.25;100128.19;5115293;28;20128;-71
2023/09/14 08:12:18;;;;;;;5.93;3.17;;;;;;;26.58;51.49;100138.06;5115683;28;20069;-71
2023/09/14 08:14:47;;;;;;;6.30;3.78;;;;;;;26.59;51.53;100123.34;5115886;28;20040;-71
2023/09/14 08:17:15;;;;;;;4.70;3.47;;;;;;;26.58;51.17;100133.44;5115544;28;20054;-71
2023/09/14 08:19:43;;;;;;;4.70;3.78;;;;;;;26.61;51.17;100143.13;5115600;28;20059;-71
2023/09/14 08:22:14;;;;;;;6.05;3.53;;;;;;;26.58;51.80;100133.44;5115861;28;20055;-71
2023/09/14 08:24:43;;;;;;;5.22;3.30;;;;;;;26.58;51.76;100141.66;5115772;28;20054;-71
2023/09/14 08:27:12;;;;;;;5.47;3.75;;;;;;;26.58;51.42;100138.91;5115258;28;20047;-70
2023/09/14 08:29:41;;;;;;;5.72;3.50;;;;;;;26.57;51.81;100141.88;5115386;28;20044;-71
2023/09/14 08:32:09;;;;;;;5.10;3.60;;;;;;;26.59;51.83;100143.34;5115450;28;20135;-71
2023/09/14 08:34:37;;;;;;;4.90;3.80;;;;;;;26.60;51.86;100141.44;5115274;28;20047;-71
2023/09/14 08:37:09;;;;;;;4.88;3.72;;;;;;;26.61;51.57;100143.97;5115387;28;20040;-71
2023/09/14 08:39:39;;;;;;;6.65;3.63;;;;;;;26.62;51.87;100132.00;5115298;28;20363;-71
2023/09/14 08:42:07;;;;;;;6.22;3.72;;;;;;;26.63;51.34;100141.88;5115270;28;20484;-71
2023/09/14 08:44:35;;;;;;;5.68;3.70;;;;;;;26.65;51.66;100141.72;5115125;28;20054;-71
2023/09/14 08:47:04;;;;;;;5.07;3.38;;;;;;;26.66;51.74;100137.94;5115057;28;20039;-71
2023/09/14 08:49:34;;;;;;;4.82;3.60;;;;;;;26.68;51.75;100127.63;5115084;28;20111;-71
2023/09/14 08:52:03;;;;;;;5.60;3.55;;;;;;;26.67;51.77;100126.78;5115251;28;20126;-71
2023/09/14 08:54:31;;;;;;;6.55;3.80;;;;;;;26.70;51.45;100131.00;5115501;28;20052;-71
2023/09/14 08:57:05;;;;;;;6.38;3.65;;;;;;;26.71;51.71;100132.69;5114939;28;20047;-70
2023/09/14 08:59:36;;;;;;;5.72;3.88;;;;;;;26.73;51.30;100131.47;5114788;28;20043;-71
2023/09/14 09:02:06;;;;;;;5.80;4.15;;;;;;;26.73;51.16;100142.41;5115121;28;20051;-71
2023/09/14 09:04:34;;;;;;;6.03;3.80;;;;;;;26.74;51.43;100138.63;5114847;28;20095;-71
2023/09/14 09:07:03;;;;;;;5.18;3.42;;;;;;;26.77;51.26;100142.84;5114743;28;20048;-70
2023/09/14 09:09:31;;;;;;;7.15;4.18;;;;;;;26.78;51.27;100139.06;5114684;28;20050;-71
2023/09/14 09:12:01;;;;;;;5.28;3.83;;;;;;;26.79;51.29;100140.75;5114930;28;20052;-70
2023/09/14 09:14:31;;;;;;;5.32;3.60;;;;;;;26.80;50.77;100135.06;5114772;28;20054;-70
2023/09/14 09:17:01;;;;;;;6.10;3.50;;;;;;;26.81;50.81;100139.50;5114450;28;20047;-71
2023/09/14 09:19:29;;;;;;;6.53;3.70;;;;;;;26.82;51.18;100143.91;5114592;28;20283;-70
2023/09/14 09:22:01;;;;;;;6.68;3.72;;;;;;;26.84;50.67;100138.28;5114419;28;20040;-70
2023/09/14 09:24:31;;;;;;;6.15;3.60;;;;;;;26.83;50.63;100142.06;5114384;28;20059;-71
2023/09/14 09:27:01;;;;;;;5.32;3.53;;;;;;;26.85;50.93;100144.59;5114216;28;20496;-71
2023/09/14 09:29:29;;;;;;;4.93;3.70;;;;;;;26.84;50.58;100142.91;5114431;28;20247;-71
2023/09/14 09:31:58;;;;;;;5.70;3.70;;;;;;;26.85;50.66;100147.31;5114454;28;20059;-70
2023/09/14 09:34:28;;;;;;;6.30;3.70;;;;;;;26.83;50.63;100142.06;5114187;28;20047;-70
2023/09/14 09:36:57;;;;;;;5.38;3.80;;;;;;;26.84;50.77;100146.47;5114102;28;20457;-71
2023/09/14 09:39:26;;;;;;;5.18;3.90;;;;;;;26.89;50.27;100145.88;5113806;28;20090;-72
2023/09/14 09:41:54;;;;;;;5.32;3.65;;;;;;;26.90;50.70;100147.56;5114222;28;20044;-71
2023/09/14 09:44:27;;;;;;;5.30;3.65;;;;;;;26.91;50.39;100136.41;5114118;28;20143;-71
2023/09/14 09:46:57;;;;;;;5.30;3.92;;;;;;;26.92;50.55;100140.81;5113832;28;20048;-71
2023/09/14 09:49:30;;;;;;;5.72;3.88;;;;;;;26.95;50.42;100136.88;5113747;28;20119;-71
2023/09/14 09:51:59;;;;;;;5.32;3.80;;;;;;;26.95;50.12;100132.22;5113735;28;20050;-71
2023/09/14 09:54:27;;;;;;;6.57;3.97;;;;;;;26.95;50.63;100140.44;5113713;28;20055;-70
2023/09/14 09:56:57;;;;;;;6.13;3.67;;;;;;;26.98;50.57;100130.97;5113636;28;20059;-71
2023/09/14 09:59:29;;;;;;;5.10;3.58;;;;;;;27.01;50.25;100136.03;5113810;28;20154;-70
2023/09/14 10:01:58;;;;;;;5.03;3.63;;;;;;;27.01;50.19;100127.81;5113531;28;20273;-70
2023/09/14 10:04:29;;;;;;;5.10;3.58;;;;;;;27.03;50.26;100142.22;5113392;28;20073;-71
2023/09/14 10:06:59;;;;;;;5.03;3.72;;;;;;;27.03;50.58;100139.47;5113392;28;20053;-70
2023/09/14 10:09:33;;;;;;;6.07;4.00;;;;;;;27.04;50.15;100139.28;5113479;28;20550;-70
2023/09/14 10:12:04;;;;;;;5.18;3.70;;;;;;;27.05;50.32;100140.13;5113428;28;20089;-70
2023/09/14 10:14:36;;;;;;;6.60;3.60;;;;;;;27.07;50.49;100143.50;5113536;28;20051;-69
2023/09/14 10:17:08;;;;;;;4.55;3.25;;;;;;;27.07;50.72;100138.00;5113249;28;20167;-70
2023/09/14 10:19:39;;;;;;;4.68;3.67;;;;;;;27.08;50.61;100140.53;5113222;28;20054;-70
2023/09/14 10:22:09;;;;;;;4.93;3.47;;;;;;;27.08;50.60;100142.44;5113458;28;20044;-70
2023/09/14 10:24:38;;;;;;;5.15;3.60;;;;;;;27.11;50.57;100150.22;5113341;28;20492;-70
2023/09/14 10:27:09;;;;;;;6.35;4.05;;;;;;;27.11;50.36;100144.75;5113144;28;20484;-71
2023/09/14 10:29:42;;;;;;;4.63;3.58;;;;;;;27.14;50.21;100149.84;5113010;28;20408;-70
2023/09/14 10:32:11;;;;;;;6.10;3.85;;;;;;;27.14;50.23;100141.63;5113461;28;20044;-71
2023/09/14 10:34:40;;;;;;;7.50;3.90;;;;;;;27.17;51.00;100149.44;5112954;28;20051;-70
2023/09/14 10:37:29;;;;;;;5.90;3.63;;;;;;;27.17;50.58;100149.44;5112913;28;20047;-70
2023/09/14 10:40:02;;;;;;;5.38;3.90;;;;;;;27.19;50.65;100141.84;5112692;28;20052;-71
2023/09/14 10:42:32;;;;;;;6.35;4.00;;;;;;;27.23;50.59;100145.91;5113219;28;20047;-71
2023/09/14 10:45:02;;;;;;;6.15;3.92;;;;;;;27.25;50.34;100140.22;5112911;28;20047;-71
2023/09/14 10:47:36;;;;;;;6.15;4.05;;;;;;;27.28;50.71;100148.84;5113010;28;20385;-71
2023/09/14 10:50:08;;;;;;;6.65;4.10;;;;;;;27.31;50.25;100145.72;5112610;28;20089;-70
2023/09/14 10:52:40;;;;;;;5.82;3.60;;;;;;;27.34;50.22;100148.06;5112383;28;20484;-70
2023/09/14 10:55:10;;;;;;;5.22;3.33;;;;;;;27.38;50.46;100141.09;5112834;28;20051;-70
2023/09/14 10:57:40;;;;;;;5.55;3.83;;;;;;;27.41;49.98;100139.88;5112806;28;20116;-71
2023/09/14 11:00:35;;;;;;;7.15;3.63;;;;;;;27.42;49.97;100140.72;5112650;28;20385;-70
2023/09/14 11:03:07;;;;;;;5.32;3.70;;;;;;;27.44;50.36;100141.34;5112468;28;20044;-70
2023/09/14 11:05:52;;;;;;;5.70;3.58;;;;;;;27.46;50.01;100131.88;5112587;28;20130;-70
2023/09/14 11:08:22;;;;;;;5.17;3.70;;;;;;;27.49;50.10;100144.31;5112487;28;20050;-71
2023/09/14 11:11:00;;;;;;;4.63;3.40;;;;;;;27.52;49.91;100135.69;5112251;28;20563;-70
2023/09/14 11:13:33;;;;;;;5.25;3.65;;;;;;;27.57;49.81;100141.41;5112402;28;20058;-70
2023/09/14 11:16:12;;;;;;;5.50;3.70;;;;;;;27.60;49.95;100135.50;5112754;28;20059;-69
2023/09/14 11:18:54;;;;;;;5.47;3.92;;;;;;;27.66;49.65;100142.94;5112555;28;20046;-70
2023/09/14 11:21:43;;;;;;;5.15;3.45;;;;;;;27.67;49.92;100137.25;5112340;28;20051;-70
2023/09/14 11:24:16;;;;;;;5.88;3.55;;;;;;;27.68;49.94;100146.31;5112049;28;20449;-71
2023/09/14 11:26:49;;;;;;;7.65;4.13;;;;;;;27.68;49.95;100146.31;5112334;28;20082;-71
2023/09/14 11:29:26;;;;;;;5.47;3.38;;;;;;;27.68;49.84;100140.81;5111398;28;20112;-71
2023/09/14 11:32:01;;;;;;;4.72;3.60;;;;;;;27.67;50.22;100150.09;5112077;28;20135;-71
2023/09/14 11:34:37;;;;;;;5.55;3.67;;;;;;;27.65;49.64;100146.69;5111927;28;20095;-71
2023/09/14 11:37:13;;;;;;;5.50;4.15;;;;;;;27.65;49.79;100149.44;5112148;28;20543;-70
2023/09/14 11:39:54;;;;;;;5.07;3.50;;;;;;;27.65;49.86;100146.69;5111899;28;20047;-70
2023/09/14 11:42:26;;;;;;;5.72;3.90;;;;;;;27.64;50.14;100150.50;5111895;28;20048;-71